sensor_id;sensor_type;location;lat;lon;timestamp;pressure;altitude;pressure_sealevel;temperature;humidity
42125;BME280;27787;44.594;11.046;2022-07-04T00:02:41;100935.56;;;28.06;51.50
42125;BME280;27787;44.594;11.046;2022-07-04T00:05:25;100935.16;;;27.98;51.71
42125;BME280;27787;44.594;11.046;2022-07-04T00:08:09;100931.88;;;27.92;52.12
42125;BME280;27787;44.594;11.046;2022-07-04T00:10:53;100928.19;;;27.94;52.00
42125;BME280;27787;44.594;11.046;2022-07-04T00:13:38;100922.75;;;27.94;51.74
42125;BME280;27787;44.594;11.046;2022-07-04T00:16:21;100925.56;;;27.92;51.90
42125;BME280;27787;44.594;11.046;2022-07-04T00:19:05;100921.13;;;27.91;51.84
42125;BME280;27787;44.594;11.046;2022-07-04T00:21:49;100926.34;;;27.94;51.35
42125;BME280;27787;44.594;11.046;2022-07-04T00:24:33;100930.69;;;27.97;51.91
42125;BME280;27787;44.594;11.046;2022-07-04T00:27:17;100928.00;;;27.97;51.14
42125;BME280;27787;44.594;11.046;2022-07-04T00:30:02;100931.00;;;27.92;51.59
42125;BME280;27787;44.594;11.046;2022-07-04T00:32:47;100928.38;;;27.90;51.50
42125;BME280;27787;44.594;11.046;2022-07-04T00:35:31;100931.09;;;27.90;51.00
42125;BME280;27787;44.594;11.046;2022-07-04T00:38:15;100931.00;;;27.92;50.81
42125;BME280;27787;44.594;11.046;2022-07-04T00:40:59;100934.59;;;27.92;50.35
42125;BME280;27787;44.594;11.046;2022-07-04T00:43:43;100917.34;;;27.94;50.31
42125;BME280;27787;44.594;11.046;2022-07-04T00:46:27;100916.75;;;27.88;50.51
42125;BME280;27787;44.594;11.046;2022-07-04T00:49:14;100912.47;;;27.84;50.74
42125;BME280;27787;44.594;11.046;2022-07-04T00:51:59;100905.50;;;27.80;51.27
42125;BME280;27787;44.594;11.046;2022-07-04T00:54:44;100905.78;;;27.76;51.45
42125;BME280;27787;44.594;11.046;2022-07-04T00:57:29;100918.50;;;27.75;51.73
42125;BME280;27787;44.594;11.046;2022-07-04T01:00:13;100913.72;;;27.79;51.42
42125;BME280;27787;44.594;11.046;2022-07-04T01:02:57;100929.81;;;27.82;51.24
42125;BME280;27787;44.594;11.046;2022-07-04T01:05:42;100939.81;;;27.81;51.54
42125;BME280;27787;44.594;11.046;2022-07-04T01:08:26;100932.81;;;27.77;51.67
42125;BME280;27787;44.594;11.046;2022-07-04T01:11:11;100927.94;;;27.68;51.96
42125;BME280;27787;44.594;11.046;2022-07-04T01:13:56;100918.44;;;27.61;52.30
42125;BME280;27787;44.594;11.046;2022-07-04T01:16:40;100916.38;;;27.50;52.90
42125;BME280;27787;44.594;11.046;2022-07-04T01:19:24;100917.69;;;27.43;53.41
42125;BME280;27787;44.594;11.046;2022-07-04T01:22:08;100916.44;;;27.35;53.60
42125;BME280;27787;44.594;11.046;2022-07-04T01:24:52;100913.38;;;27.25;54.20
42125;BME280;27787;44.594;11.046;2022-07-04T01:27:37;100912.84;;;27.18;54.37
42125;BME280;27787;44.594;11.046;2022-07-04T01:30:21;100918.66;;;27.12;55.02
42125;BME280;27787;44.594;11.046;2022-07-04T01:33:05;100914.88;;;27.15;55.05
42125;BME280;27787;44.594;11.046;2022-07-04T01:35:49;100918.09;;;27.21;54.67
42125;BME280;27787;44.594;11.046;2022-07-04T01:38:33;100924.91;;;27.28;54.21
42125;BME280;27787;44.594;11.046;2022-07-04T01:41:17;100926.94;;;27.25;54.63
42125;BME280;27787;44.594;11.046;2022-07-04T01:44:01;100927.81;;;27.25;54.02
42125;BME280;27787;44.594;11.046;2022-07-04T01:46:45;100923.34;;;27.24;53.76
42125;BME280;27787;44.594;11.046;2022-07-04T01:49:29;100919.94;;;27.21;54.52
42125;BME280;27787;44.594;11.046;2022-07-04T01:52:13;100917.97;;;27.09;55.16
42125;BME280;27787;44.594;11.046;2022-07-04T01:55:00;100915.69;;;27.01;55.47
42125;BME280;27787;44.594;11.046;2022-07-04T01:57:44;100908.25;;;27.04;55.56
42125;BME280;27787;44.594;11.046;2022-07-04T02:00:28;100898.03;;;27.10;55.04
42125;BME280;27787;44.594;11.046;2022-07-04T02:03:31;100902.75;;;27.06;55.36
42125;BME280;27787;44.594;11.046;2022-07-04T02:06:15;100900.38;;;27.00;55.74
42125;BME280;27787;44.594;11.046;2022-07-04T02:08:59;100905.75;;;27.01;55.68
42125;BME280;27787;44.594;11.046;2022-07-04T02:12:03;100912.91;;;27.02;55.60
42125;BME280;27787;44.594;11.046;2022-07-04T02:15:07;100905.03;;;26.98;55.84
42125;BME280;27787;44.594;11.046;2022-07-04T02:17:51;100919.69;;;26.94;56.05
42125;BME280;27787;44.594;11.046;2022-07-04T02:20:36;100927.22;;;26.89;56.19
42125;BME280;27787;44.594;11.046;2022-07-04T02:23:21;100924.78;;;26.84;56.15
42125;BME280;27787;44.594;11.046;2022-07-04T02:26:05;100924.41;;;26.90;56.06
42125;BME280;27787;44.594;11.046;2022-07-04T02:28:49;100921.44;;;26.95;56.00
42125;BME280;27787;44.594;11.046;2022-07-04T02:31:33;100919.78;;;26.92;55.81
42125;BME280;27787;44.594;11.046;2022-07-04T02:34:17;100915.31;;;26.91;56.20
42125;BME280;27787;44.594;11.046;2022-07-04T02:37:00;100909.13;;;26.89;56.10
42125;BME280;27787;44.594;11.046;2022-07-04T02:39:44;100913.22;;;26.81;55.82
42125;BME280;27787;44.594;11.046;2022-07-04T02:42:32;100907.31;;;26.74;55.99
42125;BME280;27787;44.594;11.046;2022-07-04T02:45:17;100915.44;;;26.74;55.77
42125;BME280;27787;44.594;11.046;2022-07-04T02:48:01;100915.53;;;26.72;56.01
42125;BME280;27787;44.594;11.046;2022-07-04T02:50:46;100921.81;;;26.73;55.85
42125;BME280;27787;44.594;11.046;2022-07-04T02:53:30;100928.88;;;26.75;56.04
42125;BME280;27787;44.594;11.046;2022-07-04T02:56:14;100920.56;;;26.79;55.49
42125;BME280;27787;44.594;11.046;2022-07-04T02:58:59;100906.16;;;26.78;55.59
42125;BME280;27787;44.594;11.046;2022-07-04T03:01:43;100906.06;;;26.80;55.76
42125;BME280;27787;44.594;11.046;2022-07-04T03:04:28;100912.34;;;26.80;55.54
42125;BME280;27787;44.594;11.046;2022-07-04T03:07:12;100905.38;;;26.76;55.59
42125;BME280;27787;44.594;11.046;2022-07-04T03:09:56;100910.19;;;26.71;56.03
42125;BME280;27787;44.594;11.046;2022-07-04T03:12:40;100914.91;;;26.67;56.16
42125;BME280;27787;44.594;11.046;2022-07-04T03:15:24;100921.66;;;26.60;56.37
42125;BME280;27787;44.594;11.046;2022-07-04T03:18:08;100909.50;;;26.52;56.55
42125;BME280;27787;44.594;11.046;2022-07-04T03:20:52;100920.41;;;26.50;56.59
42125;BME280;27787;44.594;11.046;2022-07-04T03:23:36;100914.22;;;26.48;56.55
42125;BME280;27787;44.594;11.046;2022-07-04T03:26:20;100929.50;;;26.49;55.89
42125;BME280;27787;44.594;11.046;2022-07-04T03:29:04;100931.66;;;26.42;55.76
42125;BME280;27787;44.594;11.046;2022-07-04T03:31:48;100940.66;;;26.43;56.18
42125;BME280;27787;44.594;11.046;2022-07-04T03:34:32;100953.50;;;26.39;55.96
42125;BME280;27787;44.594;11.046;2022-07-04T03:37:16;100950.69;;;26.41;56.03
42125;BME280;27787;44.594;11.046;2022-07-04T03:40:00;100965.97;;;26.42;55.80
42125;BME280;27787;44.594;11.046;2022-07-04T03:42:45;100971.56;;;26.39;56.13
42125;BME280;27787;44.594;11.046;2022-07-04T03:45:30;100966.38;;;26.34;56.24
42125;BME280;27787;44.594;11.046;2022-07-04T03:48:14;100961.16;;;26.31;55.95
42125;BME280;27787;44.594;11.046;2022-07-04T03:50:58;100968.41;;;26.31;56.04
42125;BME280;27787;44.594;11.046;2022-07-04T03:53:42;100968.53;;;26.28;56.31
42125;BME280;27787;44.594;11.046;2022-07-04T03:56:26;100971.25;;;26.28;55.70
42125;BME280;27787;44.594;11.046;2022-07-04T03:59:10;100970.28;;;26.29;55.49
42125;BME280;27787;44.594;11.046;2022-07-04T04:01:54;100966.56;;;26.31;55.71
42125;BME280;27787;44.594;11.046;2022-07-04T04:04:38;100966.63;;;26.30;56.10
42125;BME280;27787;44.594;11.046;2022-07-04T04:07:41;100964.88;;;26.29;56.10
42125;BME280;27787;44.594;11.046;2022-07-04T04:10:27;100962.16;;;26.29;55.90
42125;BME280;27787;44.594;11.046;2022-07-04T04:13:12;100969.59;;;26.25;55.76
42125;BME280;27787;44.594;11.046;2022-07-04T04:15:56;100965.03;;;26.26;55.71
42125;BME280;27787;44.594;11.046;2022-07-04T04:18:40;100962.03;;;26.32;55.00
42125;BME280;27787;44.594;11.046;2022-07-04T04:21:24;100959.38;;;26.30;54.69
42125;BME280;27787;44.594;11.046;2022-07-04T04:24:08;100956.66;;;26.30;55.10
42125;BME280;27787;44.594;11.046;2022-07-04T04:26:52;100968.41;;;26.31;55.29
42125;BME280;27787;44.594;11.046;2022-07-04T04:29:36;100972.91;;;26.30;55.63
42125;BME280;27787;44.594;11.046;2022-07-04T04:32:20;100979.38;;;26.28;55.86
42125;BME280;27787;44.594;11.046;2022-07-04T04:35:05;100982.25;;;26.25;56.54
42125;BME280;27787;44.594;11.046;2022-07-04T04:37:49;100978.94;;;26.20;56.80
42125;BME280;27787;44.594;11.046;2022-07-04T04:40:33;100987.28;;;26.15;57.33
42125;BME280;27787;44.594;11.046;2022-07-04T04:43:17;100987.53;;;26.10;57.98
42125;BME280;27787;44.594;11.046;2022-07-04T04:46:02;100990.50;;;26.06;58.36
42125;BME280;27787;44.594;11.046;2022-07-04T04:48:46;100990.72;;;26.01;58.67
42125;BME280;27787;44.594;11.046;2022-07-04T04:51:30;100983.47;;;26.02;58.76
42125;BME280;27787;44.594;11.046;2022-07-04T04:54:14;100978.63;;;26.08;58.74
42125;BME280;27787;44.594;11.046;2022-07-04T04:56:57;100985.53;;;26.14;59.00
42125;BME280;27787;44.594;11.046;2022-07-04T04:59:42;100981.56;;;26.21;58.85
42125;BME280;27787;44.594;11.046;2022-07-04T05:02:26;100982.16;;;26.26;58.74
42125;BME280;27787;44.594;11.046;2022-07-04T05:05:10;100984.63;;;26.31;58.62
42125;BME280;27787;44.594;11.046;2022-07-04T05:07:55;100978.91;;;26.37;58.87
42125;BME280;27787;44.594;11.046;2022-07-04T05:10:40;100963.53;;;26.37;59.00
42125;BME280;27787;44.594;11.046;2022-07-04T05:13:24;100956.84;;;26.44;58.96
42125;BME280;27787;44.594;11.046;2022-07-04T05:16:08;100958.22;;;26.52;58.93
42125;BME280;27787;44.594;11.046;2022-07-04T05:18:53;100953.69;;;26.52;59.15
42125;BME280;27787;44.594;11.046;2022-07-04T05:21:36;100961.81;;;26.52;59.60
42125;BME280;27787;44.594;11.046;2022-07-04T05:24:20;100960.66;;;26.56;59.38
42125;BME280;27787;44.594;11.046;2022-07-04T05:27:08;100962.19;;;26.62;59.19
42125;BME280;27787;44.594;11.046;2022-07-04T05:29:52;100960.84;;;26.69;59.69
42125;BME280;27787;44.594;11.046;2022-07-04T05:32:38;100953.34;;;26.74;59.63
42125;BME280;27787;44.594;11.046;2022-07-04T05:35:23;100953.09;;;26.79;59.34
42125;BME280;27787;44.594;11.046;2022-07-04T05:38:07;100959.13;;;26.84;59.92
42125;BME280;27787;44.594;11.046;2022-07-04T05:40:51;100960.59;;;26.89;60.75
42125;BME280;27787;44.594;11.046;2022-07-04T05:43:35;100968.63;;;26.91;60.14
42125;BME280;27787;44.594;11.046;2022-07-04T05:46:19;100973.88;;;26.94;60.52
42125;BME280;27787;44.594;11.046;2022-07-04T05:49:03;100964.63;;;26.98;60.86
42125;BME280;27787;44.594;11.046;2022-07-04T05:51:47;100969.91;;;27.01;61.09
42125;BME280;27787;44.594;11.046;2022-07-04T05:54:32;100962.88;;;26.97;61.09
42125;BME280;27787;44.594;11.046;2022-07-04T05:57:15;100962.69;;;27.00;61.07
42125;BME280;27787;44.594;11.046;2022-07-04T06:00:00;100961.78;;;27.01;60.52
42125;BME280;27787;44.594;11.046;2022-07-04T06:02:44;100968.13;;;27.00;60.23
42125;BME280;27787;44.594;11.046;2022-07-04T06:05:28;100970.69;;;27.03;60.84
42125;BME280;27787;44.594;11.046;2022-07-04T06:08:12;100976.09;;;27.03;59.65
42125;BME280;27787;44.594;11.046;2022-07-04T06:10:56;100984.81;;;27.08;59.71
42125;BME280;27787;44.594;11.046;2022-07-04T06:13:40;100973.56;;;27.16;59.83
42125;BME280;27787;44.594;11.046;2022-07-04T06:16:24;100973.28;;;27.20;59.81
42125;BME280;27787;44.594;11.046;2022-07-04T06:19:08;100981.25;;;27.23;58.16
42125;BME280;27787;44.594;11.046;2022-07-04T06:21:53;100973.91;;;27.25;57.88
42125;BME280;27787;44.594;11.046;2022-07-04T06:24:37;100970.81;;;27.31;57.25
42125;BME280;27787;44.594;11.046;2022-07-04T06:27:21;100971.44;;;27.37;56.57
42125;BME280;27787;44.594;11.046;2022-07-04T06:30:06;100955.94;;;27.39;56.36
42125;BME280;27787;44.594;11.046;2022-07-04T06:32:54;100956.53;;;27.44;56.66
42125;BME280;27787;44.594;11.046;2022-07-04T06:35:38;100952.50;;;27.51;56.68
42125;BME280;27787;44.594;11.046;2022-07-04T06:38:29;100950.66;;;27.51;54.92
42125;BME280;27787;44.594;11.046;2022-07-04T06:41:13;100952.13;;;27.57;55.13
42125;BME280;27787;44.594;11.046;2022-07-04T06:43:57;100943.88;;;27.58;55.25
42125;BME280;27787;44.594;11.046;2022-07-04T06:46:41;100948.28;;;27.61;56.03
42125;BME280;27787;44.594;11.046;2022-07-04T06:49:26;100948.97;;;27.65;55.69
42125;BME280;27787;44.594;11.046;2022-07-04T06:52:10;100956.06;;;27.67;54.65
42125;BME280;27787;44.594;11.046;2022-07-04T06:54:54;100952.38;;;27.68;53.52
42125;BME280;27787;44.594;11.046;2022-07-04T06:57:38;100948.69;;;27.69;53.18
42125;BME280;27787;44.594;11.046;2022-07-04T07:00:22;100951.03;;;27.75;53.01
42125;BME280;27787;44.594;11.046;2022-07-04T07:03:07;100951.72;;;27.79;53.05
42125;BME280;27787;44.594;11.046;2022-07-04T07:05:51;100937.97;;;27.82;53.75
42125;BME280;27787;44.594;11.046;2022-07-04T07:08:35;100933.13;;;27.87;53.79
42125;BME280;27787;44.594;11.046;2022-07-04T07:11:19;100927.41;;;27.91;54.11
42125;BME280;27787;44.594;11.046;2022-07-04T07:14:03;100939.03;;;27.94;52.95
42125;BME280;27787;44.594;11.046;2022-07-04T07:16:48;100937.19;;;27.94;52.33
42125;BME280;27787;44.594;11.046;2022-07-04T07:19:32;100938.69;;;28.00;52.87
42125;BME280;27787;44.594;11.046;2022-07-04T07:22:16;100940.13;;;28.05;53.06
42125;BME280;27787;44.594;11.046;2022-07-04T07:25:00;100935.25;;;28.10;53.41
42125;BME280;27787;44.594;11.046;2022-07-04T07:27:44;100926.84;;;28.15;53.24
42125;BME280;27787;44.594;11.046;2022-07-04T07:30:28;100930.34;;;28.17;52.76
42125;BME280;27787;44.594;11.046;2022-07-04T07:33:12;100933.63;;;28.22;52.97
42125;BME280;27787;44.594;11.046;2022-07-04T07:35:56;100925.28;;;28.25;52.33
42125;BME280;27787;44.594;11.046;2022-07-04T07:38:41;100927.94;;;28.27;51.77
42125;BME280;27787;44.594;11.046;2022-07-04T07:41:25;100930.38;;;28.31;51.38
42125;BME280;27787;44.594;11.046;2022-07-04T07:44:09;100929.94;;;28.37;51.26
42125;BME280;27787;44.594;11.046;2022-07-04T07:46:53;100926.19;;;28.40;50.98
42125;BME280;27787;44.594;11.046;2022-07-04T07:49:36;100916.97;;;28.42;50.77
42125;BME280;27787;44.594;11.046;2022-07-04T07:52:20;100919.28;;;28.48;51.07
42125;BME280;27787;44.594;11.046;2022-07-04T07:55:05;100918.88;;;28.55;51.31
42125;BME280;27787;44.594;11.046;2022-07-04T07:57:50;100921.09;;;28.62;51.75
42125;BME280;27787;44.594;11.046;2022-07-04T08:00:35;100904.69;;;28.64;51.09
42125;BME280;27787;44.594;11.046;2022-07-04T08:03:19;100908.19;;;28.66;51.16
42125;BME280;27787;44.594;11.046;2022-07-04T08:06:22;100898.31;;;28.65;50.60
42125;BME280;27787;44.594;11.046;2022-07-04T08:09:07;100913.63;;;28.66;50.76
42125;BME280;27787;44.594;11.046;2022-07-04T08:11:51;100907.22;;;28.67;49.64
42125;BME280;27787;44.594;11.046;2022-07-04T08:14:35;100903.22;;;28.72;49.52
42125;BME280;27787;44.594;11.046;2022-07-04T08:17:20;100905.63;;;28.77;49.58
42125;BME280;27787;44.594;11.046;2022-07-04T08:20:04;100897.94;;;28.84;50.17
42125;BME280;27787;44.594;11.046;2022-07-04T08:22:48;100896.88;;;28.86;50.33
42125;BME280;27787;44.594;11.046;2022-07-04T08:25:32;100893.97;;;28.89;50.32
42125;BME280;27787;44.594;11.046;2022-07-04T08:28:16;100893.00;;;28.90;50.38
42125;BME280;27787;44.594;11.046;2022-07-04T08:31:00;100890.84;;;28.95;49.23
42125;BME280;27787;44.594;11.046;2022-07-04T08:33:44;100909.56;;;29.00;49.79
42125;BME280;27787;44.594;11.046;2022-07-04T08:36:31;100909.06;;;29.07;49.11
42125;BME280;27787;44.594;11.046;2022-07-04T08:39:15;100908.22;;;29.20;48.98
42125;BME280;27787;44.594;11.046;2022-07-04T08:42:06;100913.00;;;29.29;49.51
42125;BME280;27787;44.594;11.046;2022-07-04T08:44:53;100922.03;;;29.29;49.06
42125;BME280;27787;44.594;11.046;2022-07-04T08:47:42;100921.16;;;29.29;48.34
42125;BME280;27787;44.594;11.046;2022-07-04T08:53:19;100909.91;;;29.35;48.86
42125;BME280;27787;44.594;11.046;2022-07-04T08:56:05;100913.59;;;29.34;48.43
42125;BME280;27787;44.594;11.046;2022-07-04T08:59:09;100924.47;;;29.34;48.23
42125;BME280;27787;44.594;11.046;2022-07-04T09:01:54;100913.38;;;29.37;47.93
42125;BME280;27787;44.594;11.046;2022-07-04T09:04:38;100927.25;;;29.47;47.51
42125;BME280;27787;44.594;11.046;2022-07-04T09:07:26;100927.06;;;29.62;47.65
42125;BME280;27787;44.594;11.046;2022-07-04T09:10:10;100922.84;;;29.84;47.28
42125;BME280;27787;44.594;11.046;2022-07-04T09:12:56;100927.84;;;29.90;47.25
42125;BME280;27787;44.594;11.046;2022-07-04T09:15:41;100929.16;;;29.97;46.47
42125;BME280;27787;44.594;11.046;2022-07-04T09:21:11;100916.34;;;30.12;46.79
42125;BME280;27787;44.594;11.046;2022-07-04T09:23:55;100927.22;;;30.12;46.70
42125;BME280;27787;44.594;11.046;2022-07-04T09:26:44;100914.59;;;30.11;47.41
42125;BME280;27787;44.594;11.046;2022-07-04T09:29:28;100911.19;;;30.07;48.12
42125;BME280;27787;44.594;11.046;2022-07-04T09:32:24;100914.44;;;30.00;47.86
42125;BME280;27787;44.594;11.046;2022-07-04T09:35:16;100919.34;;;29.94;48.00
42125;BME280;27787;44.594;11.046;2022-07-04T09:38:04;100930.34;;;29.93;48.09
42125;BME280;27787;44.594;11.046;2022-07-04T09:40:52;100928.72;;;29.90;47.63
42125;BME280;27787;44.594;11.046;2022-07-04T09:44:13;100929.47;;;29.92;47.64
42125;BME280;27787;44.594;11.046;2022-07-04T09:46:57;100925.22;;;30.01;47.33
42125;BME280;27787;44.594;11.046;2022-07-04T09:55:33;100937.47;;;30.08;46.63
42125;BME280;27787;44.594;11.046;2022-07-04T09:58:18;100931.56;;;30.27;47.51
42125;BME280;27787;44.594;11.046;2022-07-04T10:01:02;100929.34;;;30.45;47.63
42125;BME280;27787;44.594;11.046;2022-07-04T10:03:51;100920.50;;;30.54;46.62
42125;BME280;27787;44.594;11.046;2022-07-04T10:06:39;100927.25;;;30.61;46.99
42125;BME280;27787;44.594;11.046;2022-07-04T10:09:29;100927.06;;;30.64;45.16
42125;BME280;27787;44.594;11.046;2022-07-04T10:12:25;100933.78;;;30.71;44.24
42125;BME280;27787;44.594;11.046;2022-07-04T10:15:11;100921.56;;;30.77;44.22
42125;BME280;27787;44.594;11.046;2022-07-04T10:17:55;100925.16;;;30.77;44.39
42125;BME280;27787;44.594;11.046;2022-07-04T10:20:41;100923.41;;;30.76;44.18
42125;BME280;27787;44.594;11.046;2022-07-04T10:23:26;100921.09;;;30.83;45.38
42125;BME280;27787;44.594;11.046;2022-07-04T10:26:18;100925.50;;;30.97;45.81
42125;BME280;27787;44.594;11.046;2022-07-04T10:29:03;100924.44;;;30.99;45.95
42125;BME280;27787;44.594;11.046;2022-07-04T10:31:48;100918.31;;;30.96;45.29
42125;BME280;27787;44.594;11.046;2022-07-04T10:34:39;100914.44;;;30.87;45.85
42125;BME280;27787;44.594;11.046;2022-07-04T10:37:24;100915.88;;;30.80;46.55
42125;BME280;27787;44.594;11.046;2022-07-04T10:40:08;100905.53;;;30.72;46.13
42125;BME280;27787;44.594;11.046;2022-07-04T10:42:53;100896.59;;;30.70;46.32
42125;BME280;27787;44.594;11.046;2022-07-04T10:45:37;100897.28;;;30.61;46.69
42125;BME280;27787;44.594;11.046;2022-07-04T10:48:23;100904.03;;;30.56;46.75
42125;BME280;27787;44.594;11.046;2022-07-04T10:51:07;100895.84;;;30.56;46.93
42125;BME280;27787;44.594;11.046;2022-07-04T10:54:06;100902.06;;;30.58;47.12
42125;BME280;27787;44.594;11.046;2022-07-04T10:56:56;100904.78;;;30.70;46.61
42125;BME280;27787;44.594;11.046;2022-07-04T11:02:39;100918.84;;;30.77;46.11
42125;BME280;27787;44.594;11.046;2022-07-04T11:05:31;100925.44;;;30.86;45.53
42125;BME280;27787;44.594;11.046;2022-07-04T11:08:16;100929.94;;;30.87;45.96
42125;BME280;27787;44.594;11.046;2022-07-04T11:11:00;100931.19;;;30.94;47.04
42125;BME280;27787;44.594;11.046;2022-07-04T11:17:13;100925.00;;;30.92;47.27
42125;BME280;27787;44.594;11.046;2022-07-04T11:20:03;100927.41;;;30.83;47.95
42125;BME280;27787;44.594;11.046;2022-07-04T11:22:47;100927.19;;;30.87;48.90
42125;BME280;27787;44.594;11.046;2022-07-04T11:25:32;100926.09;;;30.89;48.28
42125;BME280;27787;44.594;11.046;2022-07-04T11:28:27;100916.34;;;30.98;48.77
42125;BME280;27787;44.594;11.046;2022-07-04T11:31:19;100919.34;;;31.06;48.84
42125;BME280;27787;44.594;11.046;2022-07-04T11:34:03;100903.28;;;31.14;47.86
42125;BME280;27787;44.594;11.046;2022-07-04T11:36:49;100910.16;;;31.20;47.56
42125;BME280;27787;44.594;11.046;2022-07-04T11:39:34;100901.28;;;31.29;47.68
42125;BME280;27787;44.594;11.046;2022-07-04T11:42:19;100908.47;;;31.30;46.41
42125;BME280;27787;44.594;11.046;2022-07-04T11:45:21;100903.88;;;31.30;46.37
42125;BME280;27787;44.594;11.046;2022-07-04T11:48:05;100907.72;;;31.28;46.95
42125;BME280;27787;44.594;11.046;2022-07-04T11:50:49;100909.78;;;31.24;47.59
42125;BME280;27787;44.594;11.046;2022-07-04T11:53:34;100904.47;;;31.23;47.34
42125;BME280;27787;44.594;11.046;2022-07-04T11:56:18;100907.06;;;31.24;47.80
42125;BME280;27787;44.594;11.046;2022-07-04T11:59:14;100910.66;;;31.25;47.86
42125;BME280;27787;44.594;11.046;2022-07-04T12:02:09;100909.50;;;31.16;47.91
42125;BME280;27787;44.594;11.046;2022-07-04T12:04:55;100893.00;;;31.18;47.76
42125;BME280;27787;44.594;11.046;2022-07-04T12:07:43;100888.41;;;31.18;47.62
42125;BME280;27787;44.594;11.046;2022-07-04T12:10:27;100888.75;;;31.26;48.09
42125;BME280;27787;44.594;11.046;2022-07-04T12:13:15;100877.47;;;31.31;47.67
42125;BME280;27787;44.594;11.046;2022-07-04T12:16:01;100884.06;;;31.39;46.61
42125;BME280;27787;44.594;11.046;2022-07-04T12:18:55;100870.94;;;31.45;47.00
42125;BME280;27787;44.594;11.046;2022-07-04T12:21:44;100873.53;;;31.46;47.42
42125;BME280;27787;44.594;11.046;2022-07-04T12:24:28;100876.75;;;31.51;47.34
42125;BME280;27787;44.594;11.046;2022-07-04T12:27:23;100871.47;;;31.61;46.41
42125;BME280;27787;44.594;11.046;2022-07-04T12:30:09;100879.41;;;31.64;46.92
42125;BME280;27787;44.594;11.046;2022-07-04T12:32:59;100879.31;;;31.77;46.67
42125;BME280;27787;44.594;11.046;2022-07-04T12:35:49;100884.69;;;31.78;45.79
42125;BME280;27787;44.594;11.046;2022-07-04T12:38:37;100870.91;;;31.80;45.45
42125;BME280;27787;44.594;11.046;2022-07-04T12:41:29;100873.25;;;31.84;45.37
42125;BME280;27787;44.594;11.046;2022-07-04T12:44:20;100868.31;;;31.78;45.53
42125;BME280;27787;44.594;11.046;2022-07-04T12:47:06;100861.44;;;31.73;45.70
42125;BME280;27787;44.594;11.046;2022-07-04T12:49:50;100859.63;;;31.84;45.99
42125;BME280;27787;44.594;11.046;2022-07-04T12:52:39;100861.63;;;31.93;45.71
42125;BME280;27787;44.594;11.046;2022-07-04T12:55:27;100858.75;;;31.95;44.64
42125;BME280;27787;44.594;11.046;2022-07-04T12:58:12;100859.63;;;31.95;44.72
42125;BME280;27787;44.594;11.046;2022-07-04T13:00:56;100850.69;;;31.93;44.38
42125;BME280;27787;44.594;11.046;2022-07-04T13:03:40;100844.97;;;31.96;44.59
42125;BME280;27787;44.594;11.046;2022-07-04T13:06:27;100833.91;;;31.98;44.39
42125;BME280;27787;44.594;11.046;2022-07-04T13:09:11;100823.25;;;32.06;45.00
42125;BME280;27787;44.594;11.046;2022-07-04T13:11:55;100820.25;;;32.09;45.23
42125;BME280;27787;44.594;11.046;2022-07-04T13:14:59;100813.66;;;32.12;45.17
42125;BME280;27787;44.594;11.046;2022-07-04T13:17:43;100821.72;;;32.13;45.25
42125;BME280;27787;44.594;11.046;2022-07-04T13:20:28;100815.41;;;32.24;43.40
42125;BME280;27787;44.594;11.046;2022-07-04T13:23:12;100814.41;;;32.25;43.17
42125;BME280;27787;44.594;11.046;2022-07-04T13:25:56;100816.53;;;32.33;43.89
42125;BME280;27787;44.594;11.046;2022-07-04T13:28:41;100798.75;;;32.38;42.84
42125;BME280;27787;44.594;11.046;2022-07-04T13:31:27;100797.75;;;32.39;43.13
42125;BME280;27787;44.594;11.046;2022-07-04T13:34:11;100787.19;;;32.46;43.15
42125;BME280;27787;44.594;11.046;2022-07-04T13:36:56;100793.50;;;32.58;42.87
42125;BME280;27787;44.594;11.046;2022-07-04T13:39:41;100789.22;;;32.65;43.08
42125;BME280;27787;44.594;11.046;2022-07-04T13:42:25;100786.22;;;32.68;43.48
42125;BME280;27787;44.594;11.046;2022-07-04T13:45:28;100790.19;;;32.75;43.09
42125;BME280;27787;44.594;11.046;2022-07-04T13:48:12;100773.16;;;32.82;42.98
42125;BME280;27787;44.594;11.046;2022-07-04T13:50:57;100772.50;;;32.90;43.01
42125;BME280;27787;44.594;11.046;2022-07-04T13:53:41;100761.16;;;32.95;42.30
42125;BME280;27787;44.594;11.046;2022-07-04T13:56:26;100758.63;;;33.03;42.73
42125;BME280;27787;44.594;11.046;2022-07-04T13:59:10;100760.56;;;33.12;42.42
42125;BME280;27787;44.594;11.046;2022-07-04T14:01:55;100750.06;;;33.17;42.01
42125;BME280;27787;44.594;11.046;2022-07-04T14:04:39;100746.66;;;33.25;41.67
42125;BME280;27787;44.594;11.046;2022-07-04T14:07:23;100740.63;;;33.31;41.41
42125;BME280;27787;44.594;11.046;2022-07-04T14:10:07;100747.22;;;33.39;40.93
42125;BME280;27787;44.594;11.046;2022-07-04T14:12:52;100740.44;;;33.43;40.83
42125;BME280;27787;44.594;11.046;2022-07-04T14:15:36;100735.03;;;33.53;40.80
42125;BME280;27787;44.594;11.046;2022-07-04T14:18:20;100731.00;;;33.57;40.77
42125;BME280;27787;44.594;11.046;2022-07-04T14:21:04;100714.75;;;33.65;40.24
42125;BME280;27787;44.594;11.046;2022-07-04T14:23:48;100710.59;;;33.71;39.97
42125;BME280;27787;44.594;11.046;2022-07-04T14:26:32;100708.03;;;33.79;40.94
42125;BME280;27787;44.594;11.046;2022-07-04T14:29:16;100706.53;;;33.86;41.45
42125;BME280;27787;44.594;11.046;2022-07-04T14:32:00;100701.47;;;33.91;40.49
42125;BME280;27787;44.594;11.046;2022-07-04T14:34:45;100706.66;;;33.94;40.38